sensor_id;sensor_type;location;lat;lon;timestamp;pressure;altitude;pressure_sealevel;temperature;humidity
20987;BME280;10652;50.306;8.570;2023-02-11T00:01:44;99792.47;;;2.40;96.12
20987;BME280;10652;50.306;8.570;2023-02-11T00:05:58;99790.78;;;2.43;95.71
20987;BME280;10652;50.306;8.570;2023-02-11T00:10:01;99777.84;;;2.46;95.72
20987;BME280;10652;50.306;8.570;2023-02-11T00:14:09;99790.06;;;2.55;95.66
20987;BME280;10652;50.306;8.570;2023-02-11T00:18:12;99789.31;;;2.62;95.35
20987;BME280;10652;50.306;8.570;2023-02-11T00:22:14;99780.69;;;2.65;94.55
20987;BME280;10652;50.306;8.570;2023-02-11T00:26:20;99785.91;;;2.69;94.86
20987;BME280;10652;50.306;8.570;2023-02-11T00:30:22;99772.94;;;2.69;94.01
20987;BME280;10652;50.306;8.570;2023-02-11T00:34:24;99783.34;;;2.71;94.04
20987;BME280;10652;50.306;8.570;2023-02-11T00:38:26;99784.13;;;2.64;92.88
20987;BME280;10652;50.306;8.570;2023-02-11T00:42:28;99782.38;;;2.61;93.20
20987;BME280;10652;50.306;8.570;2023-02-11T00:46:32;99779.00;;;2.70;93.67
20987;BME280;10652;50.306;8.570;2023-02-11T00:50:34;99779.03;;;2.73;92.98
20987;BME280;10652;50.306;8.570;2023-02-11T00:54:36;99780.78;;;2.74;92.35
20987;BME280;10652;50.306;8.570;2023-02-11T00:58:38;99774.69;;;2.70;91.69
20987;BME280;10652;50.306;8.570;2023-02-11T01:02:40;99779.00;;;2.67;90.88
20987;BME280;10652;50.306;8.570;2023-02-11T01:06:43;99781.50;;;2.61;90.86
20987;BME280;10652;50.306;8.570;2023-02-11T01:10:55;99768.44;;;2.55;90.06
20987;BME280;10652;50.306;8.570;2023-02-11T01:14:58;99777.88;;;2.48;89.81
20987;BME280;10652;50.306;8.570;2023-02-11T01:19:00;99761.41;;;2.44;90.02
20987;BME280;10652;50.306;8.570;2023-02-11T01:23:02;99763.09;;;2.42;89.88
20987;BME280;10652;50.306;8.570;2023-02-11T01:27:04;99755.28;;;2.41;89.60
20987;BME280;10652;50.306;8.570;2023-02-11T01:31:06;99763.00;;;2.36;89.46
20987;BME280;10652;50.306;8.570;2023-02-11T01:35:08;99758.66;;;2.34;89.49
20987;BME280;10652;50.306;8.570;2023-02-11T01:39:10;99752.53;;;2.27;88.92
20987;BME280;10652;50.306;8.570;2023-02-11T01:43:12;99747.31;;;2.24;89.24
20987;BME280;10652;50.306;8.570;2023-02-11T01:47:14;99730.84;;;2.21;89.49
20987;BME280;10652;50.306;8.570;2023-02-11T01:51:23;99725.63;;;2.18;89.15
20987;BME280;10652;50.306;8.570;2023-02-11T01:55:26;99721.28;;;2.18;89.59
20987;BME280;10652;50.306;8.570;2023-02-11T02:04:17;99718.75;;;2.23;89.51
20987;BME280;10652;50.306;8.570;2023-02-11T02:12:25;99702.34;;;2.24;89.54
20987;BME280;10652;50.306;8.570;2023-02-11T02:16:34;99706.69;;;2.25;89.48
20987;BME280;10652;50.306;8.570;2023-02-11T02:29:41;99712.06;;;2.40;89.80
20987;BME280;10652;50.306;8.570;2023-02-11T02:34:01;99706.94;;;2.46;90.09
20987;BME280;10652;50.306;8.570;2023-02-11T02:38:15;99704.38;;;2.47;90.46
20987;BME280;10652;50.306;8.570;2023-02-11T02:42:20;99700.97;;;2.52;90.85
20987;BME280;10652;50.306;8.570;2023-02-11T02:46:33;99698.44;;;2.56;90.47
20987;BME280;10652;50.306;8.570;2023-02-11T02:50:36;99707.06;;;2.57;90.68
20987;BME280;10652;50.306;8.570;2023-02-11T02:55:25;99701.09;;;2.64;91.19
20987;BME280;10652;50.306;8.570;2023-02-11T03:03:16;99700.38;;;2.75;91.10
20987;BME280;10652;50.306;8.570;2023-02-11T03:11:42;99709.16;;;2.88;91.14
20987;BME280;10652;50.306;8.570;2023-02-11T03:15:50;99699.69;;;2.93;90.51
20987;BME280;10652;50.306;8.570;2023-02-11T03:19:55;99674.59;;;2.93;90.42
20987;BME280;10652;50.306;8.570;2023-02-11T03:24:02;99662.53;;;2.97;90.35
20987;BME280;10652;50.306;8.570;2023-02-11T03:28:26;99662.53;;;3.00;90.15
20987;BME280;10652;50.306;8.570;2023-02-11T03:32:38;99642.69;;;3.04;89.88
20987;BME280;10652;50.306;8.570;2023-02-11T03:36:43;99631.47;;;3.09;89.78
20987;BME280;10652;50.306;8.570;2023-02-11T03:40:49;99613.28;;;3.09;89.30
20987;BME280;10652;50.306;8.570;2023-02-11T03:44:59;99623.66;;;3.09;88.89
20987;BME280;10652;50.306;8.570;2023-02-11T03:49:03;99620.19;;;3.04;88.92
20987;BME280;10652;50.306;8.570;2023-02-11T03:53:07;99609.78;;;3.01;88.58
20987;BME280;10652;50.306;8.570;2023-02-11T03:57:10;99616.72;;;3.02;88.69
20987;BME280;10652;50.306;8.570;2023-02-11T04:01:13;99634.91;;;3.04;88.46
20987;BME280;10652;50.306;8.570;2023-02-11T04:05:15;99646.19;;;3.07;88.52
20987;BME280;10652;50.306;8.570;2023-02-11T04:09:17;99647.06;;;3.08;88.76
20987;BME280;10652;50.306;8.570;2023-02-11T04:13:19;99641.06;;;3.16;89.11
20987;BME280;10652;50.306;8.570;2023-02-11T04:17:21;99647.22;;;3.29;89.80
20987;BME280;10652;50.306;8.570;2023-02-11T04:21:23;99660.25;;;3.36;89.00
20987;BME280;10652;50.306;8.570;2023-02-11T04:25:25;99668.06;;;3.35;87.98
20987;BME280;10652;50.306;8.570;2023-02-11T04:29:28;99652.47;;;3.35;87.50
20987;BME280;10652;50.306;8.570;2023-02-11T04:33:30;99647.25;;;3.36;87.74
20987;BME280;10652;50.306;8.570;2023-02-11T04:37:32;99644.72;;;3.40;86.98
20987;BME280;10652;50.306;8.570;2023-02-11T04:41:34;99645.56;;;3.40;86.86
20987;BME280;10652;50.306;8.570;2023-02-11T04:45:36;99629.13;;;3.43;86.88
20987;BME280;10652;50.306;8.570;2023-02-11T04:49:38;99635.22;;;3.45;86.78
20987;BME280;10652;50.306;8.570;2023-02-11T04:53:40;99637.78;;;3.42;86.54
20987;BME280;10652;50.306;8.570;2023-02-11T04:57:42;99635.16;;;3.37;86.20
20987;BME280;10652;50.306;8.570;2023-02-11T05:01:44;99627.31;;;3.32;86.65
20987;BME280;10652;50.306;8.570;2023-02-11T05:05:47;99600.47;;;3.30;86.01
20987;BME280;10652;50.306;8.570;2023-02-11T05:09:49;99608.22;;;3.27;86.37
20987;BME280;10652;50.306;8.570;2023-02-11T05:13:51;99616.84;;;3.20;86.43
20987;BME280;10652;50.306;8.570;2023-02-11T05:17:54;99617.69;;;3.19;87.23
20987;BME280;10652;50.306;8.570;2023-02-11T05:21:57;99623.78;;;3.21;87.36
20987;BME280;10652;50.306;8.570;2023-02-11T05:26:04;99635.91;;;3.21;87.15
20987;BME280;10652;50.306;8.570;2023-02-11T05:30:07;99635.03;;;3.20;87.14
20987;BME280;10652;50.306;8.570;2023-02-11T05:34:09;99639.38;;;3.21;87.18
20987;BME280;10652;50.306;8.570;2023-02-11T05:38:11;99635.88;;;3.18;87.25
20987;BME280;10652;50.306;8.570;2023-02-11T05:42:13;99638.41;;;3.10;87.72
20987;BME280;10652;50.306;8.570;2023-02-11T05:46:16;99634.97;;;3.11;88.31
20987;BME280;10652;50.306;8.570;2023-02-11T05:50:19;99622.88;;;3.13;88.21
20987;BME280;10652;50.306;8.570;2023-02-11T05:54:21;99625.47;;;3.16;88.17
20987;BME280;10652;50.306;8.570;2023-02-11T05:58:23;99641.03;;;3.13;87.87
20987;BME280;10652;50.306;8.570;2023-02-11T06:02:25;99655.72;;;3.11;87.74
20987;BME280;10652;50.306;8.570;2023-02-11T06:06:27;99661.78;;;3.10;87.94
20987;BME280;10652;50.306;8.570;2023-02-11T06:10:29;99656.56;;;3.07;87.61
20987;BME280;10652;50.306;8.570;2023-02-11T06:14:32;99653.94;;;3.06;88.23
20987;BME280;10652;50.306;8.570;2023-02-11T06:18:35;99654.81;;;3.03;87.65
20987;BME280;10652;50.306;8.570;2023-02-11T06:22:37;99627.94;;;3.01;86.99
20987;BME280;10652;50.306;8.570;2023-02-11T06:26:39;99621.75;;;2.87;86.71
20987;BME280;10652;50.306;8.570;2023-02-11T06:30:41;99605.22;;;2.77;86.75
20987;BME280;10652;50.306;8.570;2023-02-11T06:34:44;99601.75;;;2.74;88.33
20987;BME280;10652;50.306;8.570;2023-02-11T06:38:46;99602.72;;;2.85;89.02
20987;BME280;10652;50.306;8.570;2023-02-11T06:42:48;99615.78;;;2.97;89.10
20987;BME280;10652;50.306;8.570;2023-02-11T06:46:50;99613.19;;;2.97;88.60
20987;BME280;10652;50.306;8.570;2023-02-11T06:50:53;99613.19;;;2.97;88.62
20987;BME280;10652;50.306;8.570;2023-02-11T06:54:55;99613.22;;;3.00;88.95
20987;BME280;10652;50.306;8.570;2023-02-11T06:58:57;99615.84;;;3.05;89.29
20987;BME280;10652;50.306;8.570;2023-02-11T07:02:59;99632.41;;;3.16;89.09
20987;BME280;10652;50.306;8.570;2023-02-11T07:07:01;99625.50;;;3.18;89.18
20987;BME280;10652;50.306;8.570;2023-02-11T07:11:20;99620.34;;;3.27;89.26
20987;BME280;10652;50.306;8.570;2023-02-11T07:15:25;99621.28;;;3.36;88.87
20987;BME280;10652;50.306;8.570;2023-02-11T07:19:27;99613.56;;;3.47;88.68
20987;BME280;10652;50.306;8.570;2023-02-11T07:23:29;99620.59;;;3.62;88.21
20987;BME280;10652;50.306;8.570;2023-02-11T07:27:31;99623.25;;;3.74;87.44
20987;BME280;10652;50.306;8.570;2023-02-11T07:31:33;99635.50;;;3.89;89.20
20987;BME280;10652;50.306;8.570;2023-02-11T07:35:35;99639.09;;;4.12;88.62
20987;BME280;10652;50.306;8.570;2023-02-11T07:39:37;99646.03;;;4.16;87.19
20987;BME280;10652;50.306;8.570;2023-02-11T07:43:40;99640.00;;;4.21;86.31
20987;BME280;10652;50.306;8.570;2023-02-11T07:47:42;99644.38;;;4.30;86.58
20987;BME280;10652;50.306;8.570;2023-02-11T07:51:44;99648.72;;;4.36;85.39
20987;BME280;10652;50.306;8.570;2023-02-11T07:55:46;99655.66;;;4.31;84.26
20987;BME280;10652;50.306;8.570;2023-02-11T07:59:48;99658.25;;;4.34;84.55
20987;BME280;10652;50.306;8.570;2023-02-11T08:03:51;99667.00;;;4.57;85.46
20987;BME280;10652;50.306;8.570;2023-02-11T08:07:53;99668.75;;;4.68;85.77
20987;BME280;10652;50.306;8.570;2023-02-11T08:11:55;99673.97;;;4.68;82.73
20987;BME280;10652;50.306;8.570;2023-02-11T08:15:57;99687.84;;;4.66;81.87
20987;BME280;10652;50.306;8.570;2023-02-11T08:19:59;99681.75;;;4.64;81.21
20987;BME280;10652;50.306;8.570;2023-02-11T08:24:02;99685.22;;;4.57;80.78
20987;BME280;10652;50.306;8.570;2023-02-11T08:28:04;99699.06;;;4.47;80.34
20987;BME280;10652;50.306;8.570;2023-02-11T08:32:07;99693.84;;;4.44;81.80
20987;BME280;10652;50.306;8.570;2023-02-11T08:36:20;99694.75;;;4.53;82.36
20987;BME280;10652;50.306;8.570;2023-02-11T08:40:22;99682.66;;;4.63;82.82
20987;BME280;10652;50.306;8.570;2023-02-11T08:44:26;99697.41;;;4.70;82.06
20987;BME280;10652;50.306;8.570;2023-02-11T08:48:28;99695.69;;;4.75;82.18
20987;BME280;10652;50.306;8.570;2023-02-11T08:52:30;99700.91;;;4.81;82.32
20987;BME280;10652;50.306;8.570;2023-02-11T08:56:33;99693.97;;;4.83;82.87
20987;BME280;10652;50.306;8.570;2023-02-11T09:00:35;99697.47;;;4.97;83.16
20987;BME280;10652;50.306;8.570;2023-02-11T09:04:37;99708.78;;;5.11;82.27
20987;BME280;10652;50.306;8.570;2023-02-11T09:08:43;99707.94;;;5.22;82.82
20987;BME280;10652;50.306;8.570;2023-02-11T09:12:47;99724.44;;;5.27;81.86
20987;BME280;10652;50.306;8.570;2023-02-11T09:16:50;99727.88;;;5.23;82.37
20987;BME280;10652;50.306;8.570;2023-02-11T09:20:53;99729.63;;;5.14;81.99
20987;BME280;10652;50.306;8.570;2023-02-11T09:24:55;99735.72;;;5.17;82.65
20987;BME280;10652;50.306;8.570;2023-02-11T09:28:58;99744.41;;;5.25;83.87
20987;BME280;10652;50.306;8.570;2023-02-11T09:33:00;99730.50;;;5.23;83.61
20987;BME280;10652;50.306;8.570;2023-02-11T09:37:02;99727.03;;;5.24;83.16
20987;BME280;10652;50.306;8.570;2023-02-11T09:41:04;99729.63;;;5.24;83.63
20987;BME280;10652;50.306;8.570;2023-02-11T09:45:20;99721.84;;;5.27;83.34
20987;BME280;10652;50.306;8.570;2023-02-11T09:49:30;99732.28;;;5.31;83.88
20987;BME280;10652;50.306;8.570;2023-02-11T09:53:40;99732.25;;;5.33;83.75
20987;BME280;10652;50.306;8.570;2023-02-11T09:57:43;99738.31;;;5.36;84.26
20987;BME280;10652;50.306;8.570;2023-02-11T10:01:50;99747.03;;;5.43;84.32
20987;BME280;10652;50.306;8.570;2023-02-11T10:10:50;99757.47;;;5.47;84.28
20987;BME280;10652;50.306;8.570;2023-02-11T10:19:42;99758.31;;;5.27;83.78
20987;BME280;10652;50.306;8.570;2023-02-11T10:23:52;99760.03;;;5.25;84.79
20987;BME280;10652;50.306;8.570;2023-02-11T10:27:58;99763.50;;;5.21;84.96
20987;BME280;10652;50.306;8.570;2023-02-11T10:32:04;99765.25;;;5.25;86.11
20987;BME280;10652;50.306;8.570;2023-02-11T10:36:10;99765.25;;;5.37;85.90
20987;BME280;10652;50.306;8.570;2023-02-11T10:40:20;99755.72;;;5.57;86.63
20987;BME280;10652;50.306;8.570;2023-02-11T10:44:28;99744.41;;;5.78;85.42
20987;BME280;10652;50.306;8.570;2023-02-11T10:52:36;99750.47;;;6.05;84.48
20987;BME280;10652;50.306;8.570;2023-02-11T10:56:48;99747.00;;;6.05;83.01
20987;BME280;10652;50.306;8.570;2023-02-11T11:00:53;99735.69;;;6.01;82.95
20987;BME280;10652;50.306;8.570;2023-02-11T11:04:59;99728.72;;;6.16;82.62
20987;BME280;10652;50.306;8.570;2023-02-11T11:09:02;99740.00;;;6.24;82.25
20987;BME280;10652;50.306;8.570;2023-02-11T11:13:23;99749.56;;;6.28;82.10
20987;BME280;10652;50.306;8.570;2023-02-11T11:17:25;99740.88;;;6.33;81.57
20987;BME280;10652;50.306;8.570;2023-02-11T11:21:39;99743.47;;;6.29;81.11
20987;BME280;10652;50.306;8.570;2023-02-11T11:25:44;99748.69;;;6.39;81.61
20987;BME280;10652;50.306;8.570;2023-02-11T11:29:49;99763.47;;;6.36;81.24
20987;BME280;10652;50.306;8.570;2023-02-11T11:33:55;99761.75;;;6.26;81.52
20987;BME280;10652;50.306;8.570;2023-02-11T11:38:01;99761.75;;;6.23;82.41
20987;BME280;10652;50.306;8.570;2023-02-11T11:42:23;99747.84;;;6.33;82.57
20987;BME280;10652;50.306;8.570;2023-02-11T11:46:30;99750.44;;;6.28;82.51
20987;BME280;10652;50.306;8.570;2023-02-11T11:50:34;99752.19;;;6.29;83.25
20987;BME280;10652;50.306;8.570;2023-02-11T11:54:37;99742.59;;;6.36;83.92
20987;BME280;10652;50.306;8.570;2023-02-11T11:58:39;99742.56;;;6.45;84.04
20987;BME280;10652;50.306;8.570;2023-02-11T12:12:05;99733.88;;;6.46;85.50
20987;BME280;10652;50.306;8.570;2023-02-11T12:25:29;99726.03;;;6.52;86.06
20987;BME280;10652;50.306;8.570;2023-02-11T12:30:20;99728.69;;;6.38;87.67
20987;BME280;10652;50.306;8.570;2023-02-11T12:34:49;99733.03;;;6.39;88.52
20987;BME280;10652;50.306;8.570;2023-02-11T12:39:07;99737.34;;;6.53;88.56
20987;BME280;10652;50.306;8.570;2023-02-11T12:43:38;99732.97;;;6.55;87.93
20987;BME280;10652;50.306;8.570;2023-02-11T12:52:29;99734.75;;;6.43;87.73
20987;BME280;10652;50.306;8.570;2023-02-11T13:01:03;99726.06;;;6.41;89.49
20987;BME280;10652;50.306;8.570;2023-02-11T13:05:26;99730.41;;;6.44;89.33
20987;BME280;10652;50.306;8.570;2023-02-11T13:09:38;99722.59;;;6.36;88.77
20987;BME280;10652;50.306;8.570;2023-02-11T13:26:22;99694.78;;;6.35;89.43
20987;BME280;10652;50.306;8.570;2023-02-11T13:30:29;99701.72;;;6.36;89.64
20987;BME280;10652;50.306;8.570;2023-02-11T13:38:56;99702.56;;;6.43;90.27
20987;BME280;10652;50.306;8.570;2023-02-11T13:43:00;99685.13;;;6.51;90.03
20987;BME280;10652;50.306;8.570;2023-02-11T13:47:04;99687.75;;;6.40;90.29
20987;BME280;10652;50.306;8.570;2023-02-11T13:51:08;99699.13;;;6.32;90.83
20987;BME280;10652;50.306;8.570;2023-02-11T13:55:21;99702.56;;;6.28;91.42
20987;BME280;10652;50.306;8.570;2023-02-11T14:03:29;99697.34;;;6.49;91.84
20987;BME280;10652;50.306;8.570;2023-02-11T14:08:13;99702.50;;;6.58;91.40
20987;BME280;10652;50.306;8.570;2023-02-11T14:12:35;99692.06;;;6.55;90.10
20987;BME280;10652;50.306;8.570;2023-02-11T14:21:11;99702.50;;;6.58;90.86
20987;BME280;10652;50.306;8.570;2023-02-11T14:25:24;99702.50;;;6.55;90.54
20987;BME280;10652;50.306;8.570;2023-02-11T14:38:37;99716.41;;;6.60;89.89
20987;BME280;10652;50.306;8.570;2023-02-11T14:42:41;99721.66;;;6.57;89.99
20987;BME280;10652;50.306;8.570;2023-02-11T14:46:45;99728.63;;;6.52;90.20
20987;BME280;10652;50.306;8.570;2023-02-11T14:50:51;99723.44;;;6.49;90.87
20987;BME280;10652;50.306;8.570;2023-02-11T14:55:18;99721.69;;;6.45;90.92
20987;BME280;10652;50.306;8.570;2023-02-11T14:59:25;99728.69;;;6.40;91.89
20987;BME280;10652;50.306;8.570;2023-02-11T15:03:34;99735.63;;;6.48;92.43
20987;BME280;10652;50.306;8.570;2023-02-11T15:07:42;99730.44;;;6.38;92.09
20987;BME280;10652;50.306;8.570;2023-02-11T15:11:47;99728.69;;;6.26;92.30
20987;BME280;10652;50.306;8.570;2023-02-11T15:15:53;99745.22;;;6.25;93.57
20987;BME280;10652;50.306;8.570;2023-02-11T15:19:59;99746.09;;;6.26;93.69
20987;BME280;10652;50.306;8.570;2023-02-11T15:24:27;99750.44;;;6.21;93.67
20987;BME280;10652;50.306;8.570;2023-02-11T15:28:28;99764.38;;;6.14;94.42
20987;BME280;10652;50.306;8.570;2023-02-11T15:32:31;99763.50;;;6.13;94.69
20987;BME280;10652;50.306;8.570;2023-02-11T15:36:34;99763.53;;;6.02;94.84
20987;BME280;10652;50.306;8.570;2023-02-11T15:40:37;99773.97;;;5.87;95.69
20987;BME280;10652;50.306;8.570;2023-02-11T15:44:39;99765.28;;;5.81;97.34
20987;BME280;10652;50.306;8.570;2023-02-11T15:48:52;99784.41;;;5.78;97.86
20987;BME280;10652;50.306;8.570;2023-02-11T15:52:56;99787.88;;;5.83;98.58
20987;BME280;10652;50.306;8.570;2023-02-11T15:57:07;99774.84;;;5.83;98.46
20987;BME280;10652;50.306;8.570;2023-02-11T16:01:10;99779.19;;;5.87;98.70
20987;BME280;10652;50.306;8.570;2023-02-11T16:05:34;99788.78;;;5.85;98.63
20987;BME280;10652;50.306;8.570;2023-02-11T16:09:36;99787.88;;;5.83;98.75
20987;BME280;10652;50.306;8.570;2023-02-11T16:13:45;99791.38;;;5.85;98.96
20987;BME280;10652;50.306;8.570;2023-02-11T16:17:47;99794.84;;;5.78;98.95
20987;BME280;10652;50.306;8.570;2023-02-11T16:21:49;99798.31;;;5.77;100.00
20987;BME280;10652;50.306;8.570;2023-02-11T16:26:04;99799.19;;;5.75;99.76
20987;BME280;10652;50.306;8.570;2023-02-11T16:30:33;99793.13;;;5.71;100.00
20987;BME280;10652;50.306;8.570;2023-02-11T16:34:38;99792.22;;;5.60;100.00
20987;BME280;10652;50.306;8.570;2023-02-11T16:38:40;99795.69;;;5.56;100.00
20987;BME280;10652;50.306;8.570;2023-02-11T16:42:42;99795.69;;;5.54;100.00
20987;BME280;10652;50.306;8.570;2023-02-11T16:46:44;99795.69;;;5.53;100.00
20987;BME280;10652;50.306;8.570;2023-02-11T16:50:48;99795.69;;;5.51;100.00
20987;BME280;10652;50.306;8.570;2023-02-11T16:54:54;99802.66;;;5.54;100.00
20987;BME280;10652;50.306;8.570;2023-02-11T16:58:56;99800.91;;;5.56;100.00
20987;BME280;10652;50.306;8.570;2023-02-11T17:02:58;99813.09;;;5.58;100.00
20987;BME280;10652;50.306;8.570;2023-02-11T17:07:00;99817.44;;;5.61;100.00
20987;BME280;10652;50.306;8.570;2023-02-11T17:11:02;99817.44;;;5.61;100.00
20987;BME280;10652;50.306;8.570;2023-02-11T17:15:05;99816.53;;;5.59;100.00
20987;BME280;10652;50.306;8.570;2023-02-11T17:19:11;99829.59;;;5.56;100.00
20987;BME280;10652;50.306;8.570;2023-02-11T17:23:14;99826.13;;;5.54;100.00
20987;BME280;10652;50.306;8.570;2023-02-11T17:27:16;99828.72;;;5.49;100.00
20987;BME280;10652;50.306;8.570;2023-02-11T17:31:18;99826.97;;;5.47;100.00
20987;BME280;10652;50.306;8.570;2023-02-11T17:35:20;99831.28;;;5.42;100.00
20987;BME280;10652;50.306;8.570;2023-02-11T17:39:22;99833.03;;;5.40;100.00
20987;BME280;10652;50.306;8.570;2023-02-11T17:43:24;99846.94;;;5.42;100.00
20987;BME280;10652;50.306;8.570;2023-02-11T17:47:26;99832.19;;;5.44;100.00
20987;BME280;10652;50.306;8.570;2023-02-11T17:51:31;99838.28;;;5.49;100.00
20987;BME280;10652;50.306;8.570;2023-02-11T17:55:34;99848.69;;;5.47;100.00
20987;BME280;10652;50.306;8.570;2023-02-11T17:59:37;99850.44;;;5.53;100.00
20987;BME280;10652;50.306;8.570;2023-02-11T18:03:39;99844.38;;;5.49;100.00
20987;BME280;10652;50.306;8.570;2023-02-11T18:07:41;99848.69;;;5.52;100.00
20987;BME280;10652;50.306;8.570;2023-02-11T18:11:43;99847.84;;;5.60;100.00
20987;BME280;10652;50.306;8.570;2023-02-11T18:15:46;99844.38;;;5.69;100.00
20987;BME280;10652;50.306;8.570;2023-02-11T18:19:48;99839.19;;;5.72;100.00
20987;BME280;10652;50.306;8.570;2023-02-11T18:23:50;99841.78;;;5.78;100.00
20987;BME280;10652;50.306;8.570;2023-02-11T18:27:52;99841.78;;;5.72;100.00
20987;BME280;10652;50.306;8.570;2023-02-11T18:31:55;99846.97;;;5.69;100.00
20987;BME280;10652;50.306;8.570;2023-02-11T18:35:57;99838.31;;;5.70;100.00
20987;BME280;10652;50.306;8.570;2023-02-11T18:39:59;99833.94;;;5.60;100.00
20987;BME280;10652;50.306;8.570;2023-02-11T18:44:01;99845.19;;;5.50;100.00
20987;BME280;10652;50.306;8.570;2023-02-11T18:48:05;99842.59;;;5.45;100.00
20987;BME280;10652;50.306;8.570;2023-02-11T18:52:07;99856.50;;;5.40;100.00
20987;BME280;10652;50.306;8.570;2023-02-11T18:56:13;99861.69;;;5.41;100.00
20987;BME280;10652;50.306;8.570;2023-02-11T19:00:15;99864.34;;;5.49;100.00
20987;BME280;10652;50.306;8.570;2023-02-11T19:04:18;99866.94;;;5.49;100.00
20987;BME280;10652;50.306;8.570;2023-02-11T19:08:21;99869.53;;;5.46;100.00
20987;BME280;10652;50.306;8.570;2023-02-11T19:12:23;99866.03;;;5.41;100.00
20987;BME280;10652;50.306;8.570;2023-02-11T19:16:25;99886.06;;;5.45;100.00
20987;BME280;10652;50.306;8.570;2023-02-11T19:20:27;99886.03;;;5.42;100.00
20987;BME280;10652;50.306;8.570;2023-02-11T19:24:34;99891.28;;;5.45;100.00
20987;BME280;10652;50.306;8.570;2023-02-11T19:28:36;99897.34;;;5.54;100.00
20987;BME280;10652;50.306;8.570;2023-02-11T19:32:38;99892.19;;;5.62;100.00
20987;BME280;10652;50.306;8.570;2023-02-11T19:36:40;99891.31;;;5.62;100.00
20987;BME280;10652;50.306;8.570;2023-02-11T19:40:43;99891.28;;;5.60;100.00
20987;BME280;10652;50.306;8.570;2023-02-11T19:44:45;99887.84;;;5.63;100.00
20987;BME280;10652;50.306;8.570;2023-02-11T19:48:47;99893.91;;;5.66;100.00
20987;BME280;10652;50.306;8.570;2023-02-11T19:52:49;99882.63;;;5.79;100.00
20987;BME280;10652;50.306;8.570;2023-02-11T19:56:52;99899.16;;;5.87;100.00
20987;BME280;10652;50.306;8.570;2023-02-11T20:00:54;99905.25;;;5.80;100.00
20987;BME280;10652;50.306;8.570;2023-02-11T20:04:56;99895.66;;;5.73;100.00
20987;BME280;10652;50.306;8.570;2023-02-11T20:09:03;99899.13;;;5.66;100.00
20987;BME280;10652;50.306;8.570;2023-02-11T20:13:07;99906.94;;;5.65;100.00
20987;BME280;10652;50.306;8.570;2023-02-11T20:17:09;99905.19;;;5.64;100.00
20987;BME280;10652;50.306;8.570;2023-02-11T20:21:14;99900.88;;;5.70;100.00
20987;BME280;10652;50.306;8.570;2023-02-11T20:25:16;99894.78;;;5.73;100.00
20987;BME280;10652;50.306;8.570;2023-02-11T20:29:18;99904.38;;;5.72;100.00
20987;BME280;10652;50.306;8.570;2023-02-11T20:33:21;99893.91;;;5.66;100.00
20987;BME280;10652;50.306;8.570;2023-02-11T20:37:23;99892.16;;;5.59;100.00
20987;BME280;10652;50.306;8.570;2023-02-11T20:41:28;99890.41;;;5.55;100.00
20987;BME280;10652;50.306;8.570;2023-02-11T20:45:34;99894.75;;;5.48;100.00
20987;BME280;10652;50.306;8.570;2023-02-11T20:49:36;99903.41;;;5.46;100.00
20987;BME280;10652;50.306;8.570;2023-02-11T20:53:40;99910.34;;;5.41;100.00
20987;BME280;10652;50.306;8.570;2023-02-11T20:57:43;99911.19;;;5.37;100.00
20987;BME280;10652;50.306;8.570;2023-02-11T21:01:47;99911.19;;;5.31;100.00
20987;BME280;10652;50.306;8.570;2023-02-11T21:05:50;99907.69;;;5.32;100.00
20987;BME280;10652;50.306;8.570;2023-02-11T21:09:52;99912.91;;;5.32;100.00
20987;BME280;10652;50.306;8.570;2023-02-11T21:13:54;99911.19;;;5.32;100.00
20987;BME280;10652;50.306;8.570;2023-02-11T21:17:56;99923.34;;;5.33;100.00
20987;BME280;10652;50.306;8.570;2023-02-11T21:21:58;99925.97;;;5.36;100.00
20987;BME280;10652;50.306;8.570;2023-02-11T21:26:01;99927.69;;;5.33;100.00
20987;BME280;10652;50.306;8.570;2023-02-11T21:30:04;99936.38;;;5.33;100.00
20987;BME280;10652;50.306;8.570;2023-02-11T21:34:06;99946.78;;;5.32;100.00
20987;BME280;10652;50.306;8.570;2023-02-11T21:38:08;99948.56;;;5.37;100.00
20987;BME280;10652;50.306;8.570;2023-02-11T21:42:10;99959.84;;;5.41;100.00
20987;BME280;10652;50.306;8.570;2023-02-11T21:46:14;99971.16;;;5.35;100.00
20987;BME280;10652;50.306;8.570;2023-02-11T21:50:16;99973.66;;;5.17;100.00
20987;BME280;10652;50.306;8.570;2023-02-11T21:54:19;99978.84;;;5.15;100.00
20987;BME280;10652;50.306;8.570;2023-02-11T21:58:21;99975.41;;;5.21;100.00
20987;BME280;10652;50.306;8.570;2023-02-11T22:02:23;99975.44;;;5.26;100.00
20987;BME280;10652;50.306;8.570;2023-02-11T22:06:28;99983.28;;;5.32;100.00
20987;BME280;10652;50.306;8.570;2023-02-11T22:10:33;99978.97;;;5.37;100.00
20987;BME280;10652;50.306;8.570;2023-02-11T22:14:35;99979.84;;;5.39;100.00
20987;BME280;10652;50.306;8.570;2023-02-11T22:18:38;99982.47;;;5.39;100.00
20987;BME280;10652;50.306;8.570;2023-02-11T22:22:40;99968.53;;;5.37;100.00
20987;BME280;10652;50.306;8.570;2023-02-11T22:26:43;99972.91;;;5.39;100.00
20987;BME280;10652;50.306;8.570;2023-02-11T22:30:45;99968.53;;;5.37;100.00
20987;BME280;10652;50.306;8.570;2023-02-11T22:34:47;99962.47;;;5.39;100.00
20987;BME280;10652;50.306;8.570;2023-02-11T22:38:51;99955.53;;;5.35;100.00
20987;BME280;10652;50.306;8.570;2023-02-11T22:42:53;99966.78;;;5.30;100.00
20987;BME280;10652;50.306;8.570;2023-02-11T22:46:56;99961.56;;;5.27;100.00
20987;BME280;10652;50.306;8.570;2023-02-11T22:51:09;99957.16;;;5.20;100.00
20987;BME280;10652;50.306;8.570;2023-02-11T22:55:12;99961.50;;;5.18;100.00
20987;BME280;10652;50.306;8.570;2023-02-11T22:59:14;99970.19;;;5.17;100.00
20987;BME280;10652;50.306;8.570;2023-02-11T23:03:16;99971.03;;;5.15;100.00
20987;BME280;10652;50.306;8.570;2023-02-11T23:07:18;99982.31;;;5.14;100.00
20987;BME280;10652;50.306;8.570;2023-02-11T23:11:23;99973.63;;;5.14;100.00
20987;BME280;10652;50.306;8.570;2023-02-11T23:15:25;99988.38;;;5.13;100.00
20987;BME280;10652;50.306;8.570;2023-02-11T23:19:27;99993.59;;;5.13;100.00
20987;BME280;10652;50.306;8.570;2023-02-11T23:23:29;99989.28;;;5.12;100.00
20987;BME280;10652;50.306;8.570;2023-02-11T23:27:31;99996.22;;;5.12;100.00
20987;BME280;10652;50.306;8.570;2023-02-11T23:31:35;100003.16;;;5.11;100.00